sensor_id;sensor_type;location;lat;lon;timestamp;temperature;humidity
14475;DHT22;7323;50.848;4.334;2024-01-10T00:01:43;-2.40;99.90
14475;DHT22;7323;50.848;4.334;2024-01-10T00:04:10;-2.30;1.00
14475;DHT22;7323;50.848;4.334;2024-01-10T00:06:36;-2.30;1.00
14475;DHT22;7323;50.848;4.334;2024-01-10T00:09:01;-2.30;1.00
14475;DHT22;7323;50.848;4.334;2024-01-10T00:11:27;-2.40;1.00
14475;DHT22;7323;50.848;4.334;2024-01-10T00:13:53;-2.40;1.00
14475;DHT22;7323;50.848;4.334;2024-01-10T00:16:25;-2.50;1.00
14475;DHT22;7323;50.848;4.334;2024-01-10T00:18:51;-2.50;1.00
14475;DHT22;7323;50.848;4.334;2024-01-10T00:21:17;-2.50;1.00
14475;DHT22;7323;50.848;4.334;2024-01-10T00:23:42;-2.50;1.00
14475;DHT22;7323;50.848;4.334;2024-01-10T00:26:08;-2.50;1.00
14475;DHT22;7323;50.848;4.334;2024-01-10T00:28:33;-2.50;1.00
14475;DHT22;7323;50.848;4.334;2024-01-10T00:30:59;-2.50;1.00
14475;DHT22;7323;50.848;4.334;2024-01-10T00:33:25;-2.50;1.00
14475;DHT22;7323;50.848;4.334;2024-01-10T00:35:51;-2.50;1.00
14475;DHT22;7323;50.848;4.334;2024-01-10T00:38:16;-2.50;1.00
14475;DHT22;7323;50.848;4.334;2024-01-10T00:40:42;-2.50;1.00
14475;DHT22;7323;50.848;4.334;2024-01-10T00:43:08;-2.50;1.00
14475;DHT22;7323;50.848;4.334;2024-01-10T00:45:34;-2.50;1.00
14475;DHT22;7323;50.848;4.334;2024-01-10T00:47:59;-2.60;1.00
14475;DHT22;7323;50.848;4.334;2024-01-10T00:50:25;-2.60;1.00
14475;DHT22;7323;50.848;4.334;2024-01-10T00:52:51;-2.60;1.00
14475;DHT22;7323;50.848;4.334;2024-01-10T00:55:17;-2.50;1.00
14475;DHT22;7323;50.848;4.334;2024-01-10T00:57:42;-2.50;1.00
14475;DHT22;7323;50.848;4.334;2024-01-10T01:00:09;-2.50;1.00
14475;DHT22;7323;50.848;4.334;2024-01-10T01:02:38;-2.50;1.00
14475;DHT22;7323;50.848;4.334;2024-01-10T01:05:07;-2.60;1.00
14475;DHT22;7323;50.848;4.334;2024-01-10T01:07:33;-2.70;1.00
14475;DHT22;7323;50.848;4.334;2024-01-10T01:10:00;-2.70;1.00
14475;DHT22;7323;50.848;4.334;2024-01-10T01:12:26;-2.70;1.00
14475;DHT22;7323;50.848;4.334;2024-01-10T01:14:53;-2.70;1.00
14475;DHT22;7323;50.848;4.334;2024-01-10T01:17:18;-2.70;1.00
14475;DHT22;7323;50.848;4.334;2024-01-10T01:19:45;-2.70;1.00
14475;DHT22;7323;50.848;4.334;2024-01-10T01:22:11;-2.70;1.00
14475;DHT22;7323;50.848;4.334;2024-01-10T01:24:36;-2.80;1.00
14475;DHT22;7323;50.848;4.334;2024-01-10T01:27:03;-2.80;1.00
14475;DHT22;7323;50.848;4.334;2024-01-10T01:29:29;-2.70;1.00
14475;DHT22;7323;50.848;4.334;2024-01-10T01:31:55;-2.80;1.00
14475;DHT22;7323;50.848;4.334;2024-01-10T01:34:20;-2.80;1.00
14475;DHT22;7323;50.848;4.334;2024-01-10T01:36:46;-2.90;1.00
14475;DHT22;7323;50.848;4.334;2024-01-10T01:39:11;-3.00;1.00
14475;DHT22;7323;50.848;4.334;2024-01-10T01:41:39;-2.90;1.00
14475;DHT22;7323;50.848;4.334;2024-01-10T01:44:05;-2.90;1.00
14475;DHT22;7323;50.848;4.334;2024-01-10T01:46:32;-2.90;1.00
14475;DHT22;7323;50.848;4.334;2024-01-10T01:48:59;-2.90;1.00
14475;DHT22;7323;50.848;4.334;2024-01-10T01:51:26;-2.90;1.00
14475;DHT22;7323;50.848;4.334;2024-01-10T01:53:53;-2.90;1.00
14475;DHT22;7323;50.848;4.334;2024-01-10T01:56:20;-2.90;1.00
14475;DHT22;7323;50.848;4.334;2024-01-10T01:58:46;-2.80;1.00
14475;DHT22;7323;50.848;4.334;2024-01-10T02:01:13;-2.90;1.00
14475;DHT22;7323;50.848;4.334;2024-01-10T02:03:40;-2.90;1.00
14475;DHT22;7323;50.848;4.334;2024-01-10T02:06:06;-2.80;1.00
14475;DHT22;7323;50.848;4.334;2024-01-10T02:08:33;-2.90;1.00
14475;DHT22;7323;50.848;4.334;2024-01-10T02:11:00;-3.00;1.00
14475;DHT22;7323;50.848;4.334;2024-01-10T02:13:26;-3.00;1.00
14475;DHT22;7323;50.848;4.334;2024-01-10T02:15:52;-2.90;1.00
14475;DHT22;7323;50.848;4.334;2024-01-10T02:18:17;-2.90;1.00
14475;DHT22;7323;50.848;4.334;2024-01-10T02:20:44;-2.90;1.00
14475;DHT22;7323;50.848;4.334;2024-01-10T02:23:10;-2.80;1.00
14475;DHT22;7323;50.848;4.334;2024-01-10T02:25:36;-2.90;1.00
14475;DHT22;7323;50.848;4.334;2024-01-10T02:28:02;-2.90;1.00
14475;DHT22;7323;50.848;4.334;2024-01-10T02:30:28;-2.90;1.00
14475;DHT22;7323;50.848;4.334;2024-01-10T02:32:53;-3.00;1.00
14475;DHT22;7323;50.848;4.334;2024-01-10T02:35:19;-3.00;1.00
14475;DHT22;7323;50.848;4.334;2024-01-10T02:37:45;-3.00;1.00
14475;DHT22;7323;50.848;4.334;2024-01-10T02:40:11;-2.90;1.00
14475;DHT22;7323;50.848;4.334;2024-01-10T02:42:38;-2.90;1.00
14475;DHT22;7323;50.848;4.334;2024-01-10T02:45:04;-2.90;1.00
14475;DHT22;7323;50.848;4.334;2024-01-10T02:47:30;-2.90;1.00
14475;DHT22;7323;50.848;4.334;2024-01-10T02:49:56;-3.00;1.00
14475;DHT22;7323;50.848;4.334;2024-01-10T02:52:21;-3.10;1.00
14475;DHT22;7323;50.848;4.334;2024-01-10T02:54:47;-3.10;1.00
14475;DHT22;7323;50.848;4.334;2024-01-10T02:57:13;-3.20;1.00
14475;DHT22;7323;50.848;4.334;2024-01-10T02:59:39;-3.10;1.00
14475;DHT22;7323;50.848;4.334;2024-01-10T03:02:04;-3.10;1.00
14475;DHT22;7323;50.848;4.334;2024-01-10T03:04:30;-3.10;1.00
14475;DHT22;7323;50.848;4.334;2024-01-10T03:06:55;-3.20;1.00
14475;DHT22;7323;50.848;4.334;2024-01-10T03:09:23;-3.30;1.00
14475;DHT22;7323;50.848;4.334;2024-01-10T03:11:48;-3.30;1.00
14475;DHT22;7323;50.848;4.334;2024-01-10T03:14:14;-3.30;1.00
14475;DHT22;7323;50.848;4.334;2024-01-10T03:16:40;-3.40;1.00
14475;DHT22;7323;50.848;4.334;2024-01-10T03:19:06;-3.40;1.00
14475;DHT22;7323;50.848;4.334;2024-01-10T03:21:31;-3.40;1.00
14475;DHT22;7323;50.848;4.334;2024-01-10T03:23:59;-3.40;1.00
14475;DHT22;7323;50.848;4.334;2024-01-10T03:26:25;-3.40;1.00
14475;DHT22;7323;50.848;4.334;2024-01-10T03:28:51;-3.40;1.00
14475;DHT22;7323;50.848;4.334;2024-01-10T03:31:17;-3.30;1.00
14475;DHT22;7323;50.848;4.334;2024-01-10T03:33:43;-3.30;1.00
14475;DHT22;7323;50.848;4.334;2024-01-10T03:36:15;-3.40;1.00
14475;DHT22;7323;50.848;4.334;2024-01-10T03:38:41;-3.30;1.00
14475;DHT22;7323;50.848;4.334;2024-01-10T03:41:06;-3.30;1.00
14475;DHT22;7323;50.848;4.334;2024-01-10T03:43:32;-3.40;1.00
14475;DHT22;7323;50.848;4.334;2024-01-10T03:45:58;-3.50;1.00
14475;DHT22;7323;50.848;4.334;2024-01-10T03:48:24;-3.50;1.00
14475;DHT22;7323;50.848;4.334;2024-01-10T03:50:50;-3.60;1.00
14475;DHT22;7323;50.848;4.334;2024-01-10T03:53:15;-3.60;1.00
14475;DHT22;7323;50.848;4.334;2024-01-10T03:55:41;-3.60;1.00
14475;DHT22;7323;50.848;4.334;2024-01-10T03:58:07;-3.50;1.00
14475;DHT22;7323;50.848;4.334;2024-01-10T04:00:33;-3.50;1.00
14475;DHT22;7323;50.848;4.334;2024-01-10T04:02:59;-3.40;1.00
14475;DHT22;7323;50.848;4.334;2024-01-10T04:05:24;-3.40;1.00
14475;DHT22;7323;50.848;4.334;2024-01-10T04:07:51;-3.40;1.00
14475;DHT22;7323;50.848;4.334;2024-01-10T04:10:17;-3.40;1.00
14475;DHT22;7323;50.848;4.334;2024-01-10T04:12:44;-3.40;1.00
14475;DHT22;7323;50.848;4.334;2024-01-10T04:15:10;-3.50;1.00
14475;DHT22;7323;50.848;4.334;2024-01-10T04:17:36;-3.50;1.00
14475;DHT22;7323;50.848;4.334;2024-01-10T04:20:02;-3.50;1.00
14475;DHT22;7323;50.848;4.334;2024-01-10T04:22:28;-3.40;1.00
14475;DHT22;7323;50.848;4.334;2024-01-10T04:24:57;-3.40;1.00
14475;DHT22;7323;50.848;4.334;2024-01-10T04:27:22;-3.60;1.00
14475;DHT22;7323;50.848;4.334;2024-01-10T04:29:48;-3.60;1.00
14475;DHT22;7323;50.848;4.334;2024-01-10T04:32:14;-3.70;1.00
14475;DHT22;7323;50.848;4.334;2024-01-10T04:34:40;-3.70;1.00
14475;DHT22;7323;50.848;4.334;2024-01-10T04:37:05;-3.70;1.00
14475;DHT22;7323;50.848;4.334;2024-01-10T04:39:35;-3.70;1.00
14475;DHT22;7323;50.848;4.334;2024-01-10T04:42:03;-3.70;1.00
14475;DHT22;7323;50.848;4.334;2024-01-10T04:44:30;-3.70;1.00
14475;DHT22;7323;50.848;4.334;2024-01-10T04:46:55;-3.60;1.00
14475;DHT22;7323;50.848;4.334;2024-01-10T04:49:21;-3.70;1.00
14475;DHT22;7323;50.848;4.334;2024-01-10T04:51:47;-3.60;1.00
14475;DHT22;7323;50.848;4.334;2024-01-10T04:54:13;-3.60;1.00
14475;DHT22;7323;50.848;4.334;2024-01-10T04:56:38;-3.70;1.00
14475;DHT22;7323;50.848;4.334;2024-01-10T04:59:05;-3.70;1.00
14475;DHT22;7323;50.848;4.334;2024-01-10T05:01:31;-3.70;1.00
14475;DHT22;7323;50.848;4.334;2024-01-10T05:03:57;-3.70;1.00
14475;DHT22;7323;50.848;4.334;2024-01-10T05:06:22;-3.70;1.00
14475;DHT22;7323;50.848;4.334;2024-01-10T05:08:49;-3.70;1.00
14475;DHT22;7323;50.848;4.334;2024-01-10T05:11:15;-3.80;1.00
14475;DHT22;7323;50.848;4.334;2024-01-10T05:13:41;-3.80;1.00
14475;DHT22;7323;50.848;4.334;2024-01-10T05:16:07;-3.80;1.00
14475;DHT22;7323;50.848;4.334;2024-01-10T05:18:33;-3.80;1.00
14475;DHT22;7323;50.848;4.334;2024-01-10T05:20:59;-3.80;1.00
14475;DHT22;7323;50.848;4.334;2024-01-10T05:23:25;-3.80;1.00
14475;DHT22;7323;50.848;4.334;2024-01-10T05:25:51;-3.80;1.00
14475;DHT22;7323;50.848;4.334;2024-01-10T05:28:17;-3.80;1.00
14475;DHT22;7323;50.848;4.334;2024-01-10T05:30:43;-3.80;1.00
14475;DHT22;7323;50.848;4.334;2024-01-10T05:33:09;-3.90;1.00
14475;DHT22;7323;50.848;4.334;2024-01-10T05:35:39;-3.90;1.00
14475;DHT22;7323;50.848;4.334;2024-01-10T05:38:06;-3.90;1.00
14475;DHT22;7323;50.848;4.334;2024-01-10T05:40:32;-3.90;1.00
14475;DHT22;7323;50.848;4.334;2024-01-10T05:42:58;-3.90;1.00
14475;DHT22;7323;50.848;4.334;2024-01-10T05:45:27;-3.90;1.00
14475;DHT22;7323;50.848;4.334;2024-01-10T05:47:54;-3.90;1.00
14475;DHT22;7323;50.848;4.334;2024-01-10T05:50:20;-3.90;1.00
14475;DHT22;7323;50.848;4.334;2024-01-10T05:52:47;-3.90;1.00
14475;DHT22;7323;50.848;4.334;2024-01-10T05:55:12;-3.90;1.00
14475;DHT22;7323;50.848;4.334;2024-01-10T05:57:39;-3.90;1.00
14475;DHT22;7323;50.848;4.334;2024-01-10T06:00:06;-3.90;1.00
14475;DHT22;7323;50.848;4.334;2024-01-10T06:02:38;-3.80;1.00
14475;DHT22;7323;50.848;4.334;2024-01-10T06:05:09;-3.80;1.00
14475;DHT22;7323;50.848;4.334;2024-01-10T06:07:35;-3.90;1.00
14475;DHT22;7323;50.848;4.334;2024-01-10T06:10:01;-3.80;1.00
14475;DHT22;7323;50.848;4.334;2024-01-10T06:12:27;-3.80;1.00
14475;DHT22;7323;50.848;4.334;2024-01-10T06:14:53;-3.90;1.00
14475;DHT22;7323;50.848;4.334;2024-01-10T06:17:19;-3.80;1.00
14475;DHT22;7323;50.848;4.334;2024-01-10T06:19:45;-3.80;1.00
14475;DHT22;7323;50.848;4.334;2024-01-10T06:22:11;-3.90;1.00
14475;DHT22;7323;50.848;4.334;2024-01-10T06:24:37;-3.90;1.00
14475;DHT22;7323;50.848;4.334;2024-01-10T06:27:09;-3.90;1.00
14475;DHT22;7323;50.848;4.334;2024-01-10T06:29:36;-3.90;1.00
14475;DHT22;7323;50.848;4.334;2024-01-10T06:32:03;-3.90;1.00
14475;DHT22;7323;50.848;4.334;2024-01-10T06:34:29;-4.00;1.00
14475;DHT22;7323;50.848;4.334;2024-01-10T06:36:55;-3.90;1.00
14475;DHT22;7323;50.848;4.334;2024-01-10T06:39:21;-3.90;1.00
14475;DHT22;7323;50.848;4.334;2024-01-10T06:41:50;-3.90;1.00
14475;DHT22;7323;50.848;4.334;2024-01-10T06:44:16;-3.90;1.00
14475;DHT22;7323;50.848;4.334;2024-01-10T06:46:45;-3.90;1.00
14475;DHT22;7323;50.848;4.334;2024-01-10T06:49:11;-3.90;1.00
14475;DHT22;7323;50.848;4.334;2024-01-10T06:51:37;-4.00;1.00
14475;DHT22;7323;50.848;4.334;2024-01-10T06:54:03;-3.90;1.00
14475;DHT22;7323;50.848;4.334;2024-01-10T06:56:33;-4.00;1.00
14475;DHT22;7323;50.848;4.334;2024-01-10T06:59:00;-4.00;1.00
14475;DHT22;7323;50.848;4.334;2024-01-10T07:01:26;-4.00;1.00
14475;DHT22;7323;50.848;4.334;2024-01-10T07:03:53;-3.90;1.00
14475;DHT22;7323;50.848;4.334;2024-01-10T07:06:22;-3.80;1.00
14475;DHT22;7323;50.848;4.334;2024-01-10T07:08:49;-3.90;1.00
14475;DHT22;7323;50.848;4.334;2024-01-10T07:11:15;-3.80;1.00
14475;DHT22;7323;50.848;4.334;2024-01-10T07:13:41;-3.80;1.00
14475;DHT22;7323;50.848;4.334;2024-01-10T07:16:08;-3.80;1.00
14475;DHT22;7323;50.848;4.334;2024-01-10T07:18:34;-3.80;1.00
14475;DHT22;7323;50.848;4.334;2024-01-10T07:20:59;-3.80;1.00
14475;DHT22;7323;50.848;4.334;2024-01-10T07:23:25;-3.80;1.00
14475;DHT22;7323;50.848;4.334;2024-01-10T07:25:51;-3.60;1.00
14475;DHT22;7323;50.848;4.334;2024-01-10T07:28:18;-3.70;1.00
14475;DHT22;7323;50.848;4.334;2024-01-10T07:30:44;-3.70;1.00
14475;DHT22;7323;50.848;4.334;2024-01-10T07:33:10;-3.70;1.00
14475;DHT22;7323;50.848;4.334;2024-01-10T07:35:36;-3.80;1.00
14475;DHT22;7323;50.848;4.334;2024-01-10T07:38:06;-3.80;1.00
14475;DHT22;7323;50.848;4.334;2024-01-10T07:40:35;-3.80;1.00
14475;DHT22;7323;50.848;4.334;2024-01-10T07:43:01;-3.80;1.00
14475;DHT22;7323;50.848;4.334;2024-01-10T07:45:27;-3.80;1.00
14475;DHT22;7323;50.848;4.334;2024-01-10T07:47:53;-3.70;1.00
14475;DHT22;7323;50.848;4.334;2024-01-10T07:50:19;-3.70;1.00
14475;DHT22;7323;50.848;4.334;2024-01-10T07:52:45;-3.60;1.00
14475;DHT22;7323;50.848;4.334;2024-01-10T07:55:13;-3.60;1.00
14475;DHT22;7323;50.848;4.334;2024-01-10T07:57:39;-3.60;1.00
14475;DHT22;7323;50.848;4.334;2024-01-10T08:00:08;-3.50;1.00
14475;DHT22;7323;50.848;4.334;2024-01-10T08:02:39;-3.60;1.00
14475;DHT22;7323;50.848;4.334;2024-01-10T08:05:06;-3.60;1.00
14475;DHT22;7323;50.848;4.334;2024-01-10T08:07:35;-3.60;1.00
14475;DHT22;7323;50.848;4.334;2024-01-10T08:10:07;-3.60;1.00
14475;DHT22;7323;50.848;4.334;2024-01-10T08:12:35;-3.60;1.00
14475;DHT22;7323;50.848;4.334;2024-01-10T08:15:01;-3.60;1.00
14475;DHT22;7323;50.848;4.334;2024-01-10T08:17:27;-3.70;1.00
14475;DHT22;7323;50.848;4.334;2024-01-10T08:19:53;-3.80;1.00
14475;DHT22;7323;50.848;4.334;2024-01-10T08:22:19;-3.80;1.00
14475;DHT22;7323;50.848;4.334;2024-01-10T08:24:45;-3.80;1.00
14475;DHT22;7323;50.848;4.334;2024-01-10T08:27:11;-3.70;1.00
14475;DHT22;7323;50.848;4.334;2024-01-10T08:29:37;-3.70;1.00
14475;DHT22;7323;50.848;4.334;2024-01-10T08:32:03;-3.70;1.00
14475;DHT22;7323;50.848;4.334;2024-01-10T08:34:29;-3.70;1.00
14475;DHT22;7323;50.848;4.334;2024-01-10T08:36:55;-3.70;1.00
14475;DHT22;7323;50.848;4.334;2024-01-10T08:39:20;-3.60;1.00
14475;DHT22;7323;50.848;4.334;2024-01-10T08:41:47;-3.70;1.00
14475;DHT22;7323;50.848;4.334;2024-01-10T08:44:13;-3.70;1.00
14475;DHT22;7323;50.848;4.334;2024-01-10T08:46:39;-3.60;1.00
14475;DHT22;7323;50.848;4.334;2024-01-10T08:49:05;-3.60;1.00
14475;DHT22;7323;50.848;4.334;2024-01-10T08:51:30;-3.60;1.00
14475;DHT22;7323;50.848;4.334;2024-01-10T08:53:56;-3.70;1.00
14475;DHT22;7323;50.848;4.334;2024-01-10T08:56:23;-3.70;1.00
14475;DHT22;7323;50.848;4.334;2024-01-10T08:58:49;-3.70;1.00
14475;DHT22;7323;50.848;4.334;2024-01-10T09:01:15;-3.60;1.00
14475;DHT22;7323;50.848;4.334;2024-01-10T09:03:40;-3.50;1.00
14475;DHT22;7323;50.848;4.334;2024-01-10T09:06:06;-3.40;1.00
14475;DHT22;7323;50.848;4.334;2024-01-10T09:08:35;-3.40;1.00
14475;DHT22;7323;50.848;4.334;2024-01-10T09:11:01;-3.30;1.00
14475;DHT22;7323;50.848;4.334;2024-01-10T09:13:26;-3.30;1.00
14475;DHT22;7323;50.848;4.334;2024-01-10T09:15:52;-3.20;1.00
14475;DHT22;7323;50.848;4.334;2024-01-10T09:18:18;-3.20;1.00
14475;DHT22;7323;50.848;4.334;2024-01-10T09:20:44;-3.20;1.00
14475;DHT22;7323;50.848;4.334;2024-01-10T09:23:10;-3.20;1.00
14475;DHT22;7323;50.848;4.334;2024-01-10T09:25:36;-3.10;1.00
14475;DHT22;7323;50.848;4.334;2024-01-10T09:28:04;-3.00;1.00
14475;DHT22;7323;50.848;4.334;2024-01-10T09:30:30;-3.00;1.00
14475;DHT22;7323;50.848;4.334;2024-01-10T09:32:56;-3.10;1.00
14475;DHT22;7323;50.848;4.334;2024-01-10T09:35:22;-3.00;1.00
14475;DHT22;7323;50.848;4.334;2024-01-10T09:37:48;-3.00;1.00
14475;DHT22;7323;50.848;4.334;2024-01-10T09:40:15;-3.00;1.00
14475;DHT22;7323;50.848;4.334;2024-01-10T09:42:44;-2.90;1.00
14475;DHT22;7323;50.848;4.334;2024-01-10T09:45:12;-2.80;1.00
14475;DHT22;7323;50.848;4.334;2024-01-10T09:47:39;-2.70;1.00
14475;DHT22;7323;50.848;4.334;2024-01-10T09:50:08;-2.70;1.00
14475;DHT22;7323;50.848;4.334;2024-01-10T09:52:51;-2.60;1.00
14475;DHT22;7323;50.848;4.334;2024-01-10T09:55:22;-2.50;1.00
14475;DHT22;7323;50.848;4.334;2024-01-10T09:57:49;-2.50;1.00
14475;DHT22;7323;50.848;4.334;2024-01-10T10:00:17;-1.30;1.00
14475;DHT22;7323;50.848;4.334;2024-01-10T10:02:45;-0.80;1.00
14475;DHT22;7323;50.848;4.334;2024-01-10T10:05:17;-0.30;1.00
14475;DHT22;7323;50.848;4.334;2024-01-10T10:07:48;0.20;1.00
14475;DHT22;7323;50.848;4.334;2024-01-10T10:10:14;0.00;1.00
14475;DHT22;7323;50.848;4.334;2024-01-10T10:12:51;0.30;1.00
14475;DHT22;7323;50.848;4.334;2024-01-10T10:15:20;0.40;99.90
14475;DHT22;7323;50.848;4.334;2024-01-10T10:17:48;0.50;99.90
14475;DHT22;7323;50.848;4.334;2024-01-10T10:22:40;0.00;99.90
14475;DHT22;7323;50.848;4.334;2024-01-10T10:25:07;-0.70;99.90
14475;DHT22;7323;50.848;4.334;2024-01-10T10:27:36;-1.20;99.90
14475;DHT22;7323;50.848;4.334;2024-01-10T10:30:03;-1.20;99.90
14475;DHT22;7323;50.848;4.334;2024-01-10T10:32:30;-1.30;99.90
14475;DHT22;7323;50.848;4.334;2024-01-10T10:34:56;-1.40;99.90
14475;DHT22;7323;50.848;4.334;2024-01-10T10:37:22;-1.30;99.90
14475;DHT22;7323;50.848;4.334;2024-01-10T10:39:47;-1.40;99.90
14475;DHT22;7323;50.848;4.334;2024-01-10T10:42:15;-1.50;99.90
14475;DHT22;7323;50.848;4.334;2024-01-10T10:44:43;-1.50;99.90
14475;DHT22;7323;50.848;4.334;2024-01-10T10:47:10;-1.60;99.90
14475;DHT22;7323;50.848;4.334;2024-01-10T10:49:47;-1.50;99.90
14475;DHT22;7323;50.848;4.334;2024-01-10T10:52:15;-1.40;99.90
14475;DHT22;7323;50.848;4.334;2024-01-10T10:54:42;-1.40;99.90
14475;DHT22;7323;50.848;4.334;2024-01-10T10:57:10;-1.50;99.90
14475;DHT22;7323;50.848;4.334;2024-01-10T10:59:36;-1.60;99.90
14475;DHT22;7323;50.848;4.334;2024-01-10T11:02:04;-1.60;99.90
14475;DHT22;7323;50.848;4.334;2024-01-10T11:04:33;-1.50;99.90
14475;DHT22;7323;50.848;4.334;2024-01-10T11:07:00;-1.50;1.00
14475;DHT22;7323;50.848;4.334;2024-01-10T11:09:25;-1.50;99.90
14475;DHT22;7323;50.848;4.334;2024-01-10T11:12:23;-1.50;99.90
14475;DHT22;7323;50.848;4.334;2024-01-10T11:23:47;-1.40;1.00
14475;DHT22;7323;50.848;4.334;2024-01-10T11:26:17;-1.50;1.00
14475;DHT22;7323;50.848;4.334;2024-01-10T11:28:43;-1.60;1.00
14475;DHT22;7323;50.848;4.334;2024-01-10T11:31:09;-1.60;1.00
14475;DHT22;7323;50.848;4.334;2024-01-10T11:33:36;-1.60;1.00
14475;DHT22;7323;50.848;4.334;2024-01-10T11:36:07;-1.50;1.00
14475;DHT22;7323;50.848;4.334;2024-01-10T11:38:48;-1.30;1.00
14475;DHT22;7323;50.848;4.334;2024-01-10T11:41:38;-1.20;99.90
14475;DHT22;7323;50.848;4.334;2024-01-10T11:46:39;-1.10;99.90
14475;DHT22;7323;50.848;4.334;2024-01-10T11:49:08;-1.00;99.90
14475;DHT22;7323;50.848;4.334;2024-01-10T11:51:38;-0.90;99.90
14475;DHT22;7323;50.848;4.334;2024-01-10T11:54:04;-0.90;99.90
14475;DHT22;7323;50.848;4.334;2024-01-10T11:56:43;-0.70;99.90
14475;DHT22;7323;50.848;4.334;2024-01-10T11:59:11;-0.70;99.90
14475;DHT22;7323;50.848;4.334;2024-01-10T12:01:37;-0.70;99.90
14475;DHT22;7323;50.848;4.334;2024-01-10T12:04:04;-0.70;99.90
14475;DHT22;7323;50.848;4.334;2024-01-10T12:06:31;-0.60;99.90
14475;DHT22;7323;50.848;4.334;2024-01-10T12:08:57;-0.60;99.90
14475;DHT22;7323;50.848;4.334;2024-01-10T12:11:23;-0.50;99.90
14475;DHT22;7323;50.848;4.334;2024-01-10T12:13:49;-0.50;99.90
14475;DHT22;7323;50.848;4.334;2024-01-10T12:16:15;-0.40;99.90
14475;DHT22;7323;50.848;4.334;2024-01-10T12:18:44;-0.40;99.90
14475;DHT22;7323;50.848;4.334;2024-01-10T12:21:10;-0.30;99.90
14475;DHT22;7323;50.848;4.334;2024-01-10T12:23:38;-0.30;99.90
14475;DHT22;7323;50.848;4.334;2024-01-10T12:26:08;-0.40;99.90
14475;DHT22;7323;50.848;4.334;2024-01-10T12:28:35;-0.30;99.90
14475;DHT22;7323;50.848;4.334;2024-01-10T12:31:03;-0.40;99.90
14475;DHT22;7323;50.848;4.334;2024-01-10T12:33:28;-0.30;99.90
14475;DHT22;7323;50.848;4.334;2024-01-10T12:36:10;-0.30;99.90
14475;DHT22;7323;50.848;4.334;2024-01-10T12:38:39;-0.30;99.90
14475;DHT22;7323;50.848;4.334;2024-01-10T12:41:05;-0.30;99.90
14475;DHT22;7323;50.848;4.334;2024-01-10T12:43:35;-0.20;97.40
14475;DHT22;7323;50.848;4.334;2024-01-10T12:48:32;-0.10;62.70
14475;DHT22;7323;50.848;4.334;2024-01-10T12:51:07;0.00;26.70
14475;DHT22;7323;50.848;4.334;2024-01-10T12:53:43;-0.10;5.10
14475;DHT22;7323;50.848;4.334;2024-01-10T12:56:10;-0.10;1.00
14475;DHT22;7323;50.848;4.334;2024-01-10T12:58:41;-0.10;20.20
14475;DHT22;7323;50.848;4.334;2024-01-10T13:01:10;0.00;5.60
14475;DHT22;7323;50.848;4.334;2024-01-10T13:03:37;0.10;1.00
14475;DHT22;7323;50.848;4.334;2024-01-10T13:06:03;0.10;1.00
14475;DHT22;7323;50.848;4.334;2024-01-10T13:08:29;0.10;1.00
14475;DHT22;7323;50.848;4.334;2024-01-10T13:10:55;0.40;1.00
14475;DHT22;7323;50.848;4.334;2024-01-10T13:13:20;0.40;1.00
14475;DHT22;7323;50.848;4.334;2024-01-10T13:15:50;0.40;1.00
14475;DHT22;7323;50.848;4.334;2024-01-10T13:18:16;0.40;1.00
14475;DHT22;7323;50.848;4.334;2024-01-10T13:20:43;0.40;1.00
14475;DHT22;7323;50.848;4.334;2024-01-10T13:23:09;0.40;1.00
14475;DHT22;7323;50.848;4.334;2024-01-10T13:25:35;0.40;1.00
14475;DHT22;7323;50.848;4.334;2024-01-10T13:28:06;0.50;1.00
14475;DHT22;7323;50.848;4.334;2024-01-10T13:30:32;0.60;1.00
14475;DHT22;7323;50.848;4.334;2024-01-10T13:32:58;0.60;99.90
14475;DHT22;7323;50.848;4.334;2024-01-10T13:35:24;0.70;99.90
14475;DHT22;7323;50.848;4.334;2024-01-10T13:37:49;0.80;99.90
14475;DHT22;7323;50.848;4.334;2024-01-10T13:40:15;1.00;99.90
14475;DHT22;7323;50.848;4.334;2024-01-10T13:42:42;1.00;1.00
14475;DHT22;7323;50.848;4.334;2024-01-10T13:45:09;1.00;1.00
14475;DHT22;7323;50.848;4.334;2024-01-10T13:47:39;0.90;1.00
14475;DHT22;7323;50.848;4.334;2024-01-10T13:50:05;1.00;1.00
14475;DHT22;7323;50.848;4.334;2024-01-10T13:52:32;1.10;1.00
14475;DHT22;7323;50.848;4.334;2024-01-10T13:54:59;1.00;99.90
14475;DHT22;7323;50.848;4.334;2024-01-10T13:57:25;1.10;99.90
14475;DHT22;7323;50.848;4.334;2024-01-10T13:59:50;1.10;99.90
14475;DHT22;7323;50.848;4.334;2024-01-10T14:02:16;1.10;99.90
14475;DHT22;7323;50.848;4.334;2024-01-10T14:04:44;1.20;99.90
14475;DHT22;7323;50.848;4.334;2024-01-10T14:07:10;1.20;1.00
14475;DHT22;7323;50.848;4.334;2024-01-10T14:09:36;1.20;99.90
14475;DHT22;7323;50.848;4.334;2024-01-10T14:12:02;1.20;36.30
14475;DHT22;7323;50.848;4.334;2024-01-10T14:14:28;1.20;1.00
14475;DHT22;7323;50.848;4.334;2024-01-10T14:16:53;1.20;1.00
14475;DHT22;7323;50.848;4.334;2024-01-10T14:19:19;1.40;1.00
14475;DHT22;7323;50.848;4.334;2024-01-10T14:21:46;1.20;1.00
14475;DHT22;7323;50.848;4.334;2024-01-10T14:24:12;1.10;1.00
14475;DHT22;7323;50.848;4.334;2024-01-10T14:26:37;1.10;1.00
14475;DHT22;7323;50.848;4.334;2024-01-10T14:29:03;1.10;1.00
14475;DHT22;7323;50.848;4.334;2024-01-10T14:31:30;1.10;1.00
14475;DHT22;7323;50.848;4.334;2024-01-10T14:33:55;1.10;1.00
14475;DHT22;7323;50.848;4.334;2024-01-10T14:36:22;1.20;1.00
14475;DHT22;7323;50.848;4.334;2024-01-10T14:38:48;1.20;1.00
14475;DHT22;7323;50.848;4.334;2024-01-10T14:41:14;1.30;1.00
14475;DHT22;7323;50.848;4.334;2024-01-10T14:43:39;1.40;1.00
14475;DHT22;7323;50.848;4.334;2024-01-10T14:46:05;1.30;15.40
14475;DHT22;7323;50.848;4.334;2024-01-10T14:48:35;1.40;99.90
14475;DHT22;7323;50.848;4.334;2024-01-10T14:51:01;1.20;10.60
14475;DHT22;7323;50.848;4.334;2024-01-10T14:53:27;1.30;99.90
14475;DHT22;7323;50.848;4.334;2024-01-10T14:55:53;1.20;99.90
14475;DHT22;7323;50.848;4.334;2024-01-10T14:58:19;1.20;22.00
14475;DHT22;7323;50.848;4.334;2024-01-10T15:00:45;1.10;26.90
14475;DHT22;7323;50.848;4.334;2024-01-10T15:03:11;1.10;99.90
14475;DHT22;7323;50.848;4.334;2024-01-10T15:05:38;1.20;99.90
14475;DHT22;7323;50.848;4.334;2024-01-10T15:08:04;1.20;99.90
14475;DHT22;7323;50.848;4.334;2024-01-10T15:10:37;1.20;99.90
14475;DHT22;7323;50.848;4.334;2024-01-10T15:13:11;1.20;1.00
14475;DHT22;7323;50.848;4.334;2024-01-10T15:15:39;1.10;1.00
14475;DHT22;7323;50.848;4.334;2024-01-10T15:18:06;1.20;1.00
14475;DHT22;7323;50.848;4.334;2024-01-10T15:20:32;1.10;1.00
14475;DHT22;7323;50.848;4.334;2024-01-10T15:22:58;1.10;1.00
14475;DHT22;7323;50.848;4.334;2024-01-10T15:25:24;1.00;1.00
14475;DHT22;7323;50.848;4.334;2024-01-10T15:27:51;1.00;39.40
14475;DHT22;7323;50.848;4.334;2024-01-10T15:30:17;0.90;99.90
14475;DHT22;7323;50.848;4.334;2024-01-10T15:32:48;0.90;99.90
14475;DHT22;7323;50.848;4.334;2024-01-10T15:35:14;0.90;99.90
14475;DHT22;7323;50.848;4.334;2024-01-10T15:37:43;0.90;99.90
14475;DHT22;7323;50.848;4.334;2024-01-10T15:40:10;0.90;99.90
14475;DHT22;7323;50.848;4.334;2024-01-10T15:42:40;0.80;99.90
14475;DHT22;7323;50.848;4.334;2024-01-10T15:45:07;0.90;99.90
14475;DHT22;7323;50.848;4.334;2024-01-10T15:47:33;0.90;99.90
14475;DHT22;7323;50.848;4.334;2024-01-10T15:49:59;1.00;99.90
14475;DHT22;7323;50.848;4.334;2024-01-10T15:52:25;1.10;1.00
14475;DHT22;7323;50.848;4.334;2024-01-10T15:54:52;1.00;1.00
14475;DHT22;7323;50.848;4.334;2024-01-10T15:57:24;1.10;1.00
14475;DHT22;7323;50.848;4.334;2024-01-10T15:59:50;1.00;1.00
14475;DHT22;7323;50.848;4.334;2024-01-10T16:02:15;1.00;1.00
14475;DHT22;7323;50.848;4.334;2024-01-10T16:04:41;1.10;99.90
14475;DHT22;7323;50.848;4.334;2024-01-10T16:07:07;1.00;99.90
14475;DHT22;7323;50.848;4.334;2024-01-10T16:09:35;1.00;99.90
14475;DHT22;7323;50.848;4.334;2024-01-10T16:12:01;1.10;1.00
14475;DHT22;7323;50.848;4.334;2024-01-10T16:14:27;1.00;1.00
14475;DHT22;7323;50.848;4.334;2024-01-10T16:16:52;1.00;1.00